sensor_id;sensor_type;location;lat;lon;timestamp;P1;durP1;ratioP1;P2;durP2;ratioP2
15271;SDS011;7737;51.578;7.268;2023-06-10T00:01:32;9.75;;;8.82;;
15271;SDS011;7737;51.578;7.268;2023-06-10T00:03:59;9.55;;;8.73;;
15271;SDS011;7737;51.578;7.268;2023-06-10T00:06:27;9.15;;;8.35;;
15271;SDS011;7737;51.578;7.268;2023-06-10T00:08:53;9.35;;;8.45;;
15271;SDS011;7737;51.578;7.268;2023-06-10T00:11:20;8.52;;;7.82;;
15271;SDS011;7737;51.578;7.268;2023-06-10T00:13:47;9.70;;;8.90;;
15271;SDS011;7737;51.578;7.268;2023-06-10T00:16:14;9.93;;;9.02;;
15271;SDS011;7737;51.578;7.268;2023-06-10T00:18:42;10.50;;;9.43;;
15271;SDS011;7737;51.578;7.268;2023-06-10T00:21:09;10.27;;;9.27;;
15271;SDS011;7737;51.578;7.268;2023-06-10T00:23:36;10.18;;;9.20;;
15271;SDS011;7737;51.578;7.268;2023-06-10T00:26:03;10.57;;;9.68;;
15271;SDS011;7737;51.578;7.268;2023-06-10T00:28:30;10.13;;;9.32;;
15271;SDS011;7737;51.578;7.268;2023-06-10T00:30:56;9.90;;;9.00;;
15271;SDS011;7737;51.578;7.268;2023-06-10T00:33:23;10.85;;;9.88;;
15271;SDS011;7737;51.578;7.268;2023-06-10T00:35:50;9.55;;;8.75;;
15271;SDS011;7737;51.578;7.268;2023-06-10T00:38:16;9.50;;;8.70;;
15271;SDS011;7737;51.578;7.268;2023-06-10T00:40:44;9.40;;;8.55;;
15271;SDS011;7737;51.578;7.268;2023-06-10T00:43:10;9.88;;;8.98;;
15271;SDS011;7737;51.578;7.268;2023-06-10T00:45:37;9.60;;;8.70;;
15271;SDS011;7737;51.578;7.268;2023-06-10T00:48:04;9.68;;;8.90;;
15271;SDS011;7737;51.578;7.268;2023-06-10T00:50:31;11.55;;;9.32;;
15271;SDS011;7737;51.578;7.268;2023-06-10T00:52:58;10.40;;;9.50;;
15271;SDS011;7737;51.578;7.268;2023-06-10T00:55:26;9.88;;;8.98;;
15271;SDS011;7737;51.578;7.268;2023-06-10T00:57:54;10.23;;;9.32;;
15271;SDS011;7737;51.578;7.268;2023-06-10T01:00:21;10.07;;;9.07;;
15271;SDS011;7737;51.578;7.268;2023-06-10T01:02:47;10.05;;;9.25;;
15271;SDS011;7737;51.578;7.268;2023-06-10T01:05:14;9.57;;;8.77;;
15271;SDS011;7737;51.578;7.268;2023-06-10T01:07:43;9.80;;;9.00;;
15271;SDS011;7737;51.578;7.268;2023-06-10T01:10:20;9.85;;;8.85;;
15271;SDS011;7737;51.578;7.268;2023-06-10T01:12:55;10.02;;;9.13;;
15271;SDS011;7737;51.578;7.268;2023-06-10T01:15:27;9.70;;;8.90;;
15271;SDS011;7737;51.578;7.268;2023-06-10T01:17:55;10.50;;;9.60;;
15271;SDS011;7737;51.578;7.268;2023-06-10T01:20:23;10.10;;;9.25;;
15271;SDS011;7737;51.578;7.268;2023-06-10T01:22:53;10.25;;;9.25;;
15271;SDS011;7737;51.578;7.268;2023-06-10T01:25:20;10.23;;;9.32;;
15271;SDS011;7737;51.578;7.268;2023-06-10T01:27:52;10.85;;;9.85;;
15271;SDS011;7737;51.578;7.268;2023-06-10T01:30:22;11.30;;;9.68;;
15271;SDS011;7737;51.578;7.268;2023-06-10T01:32:58;10.07;;;9.15;;
15271;SDS011;7737;51.578;7.268;2023-06-10T01:35:28;10.85;;;9.85;;
15271;SDS011;7737;51.578;7.268;2023-06-10T01:37:58;10.50;;;9.70;;
15271;SDS011;7737;51.578;7.268;2023-06-10T01:40:27;10.30;;;9.45;;
15271;SDS011;7737;51.578;7.268;2023-06-10T01:42:55;11.32;;;10.32;;
15271;SDS011;7737;51.578;7.268;2023-06-10T01:45:22;11.00;;;10.00;;
15271;SDS011;7737;51.578;7.268;2023-06-10T01:47:49;10.93;;;9.93;;
15271;SDS011;7737;51.578;7.268;2023-06-10T01:53:27;11.85;;;10.75;;
15271;SDS011;7737;51.578;7.268;2023-06-10T01:55:53;11.32;;;10.32;;
15271;SDS011;7737;51.578;7.268;2023-06-10T01:58:20;12.43;;;11.32;;
15271;SDS011;7737;51.578;7.268;2023-06-10T02:00:46;11.82;;;10.82;;
15271;SDS011;7737;51.578;7.268;2023-06-10T02:03:13;12.18;;;11.18;;
15271;SDS011;7737;51.578;7.268;2023-06-10T02:05:40;11.27;;;10.35;;
15271;SDS011;7737;51.578;7.268;2023-06-10T02:08:06;11.77;;;10.57;;
15271;SDS011;7737;51.578;7.268;2023-06-10T02:10:34;11.85;;;10.75;;
15271;SDS011;7737;51.578;7.268;2023-06-10T02:13:00;11.82;;;10.70;;
15271;SDS011;7737;51.578;7.268;2023-06-10T02:15:27;12.02;;;10.95;;
15271;SDS011;7737;51.578;7.268;2023-06-10T02:17:53;12.07;;;11.05;;
15271;SDS011;7737;51.578;7.268;2023-06-10T02:20:21;12.15;;;11.02;;
15271;SDS011;7737;51.578;7.268;2023-06-10T02:22:48;12.45;;;11.30;;
15271;SDS011;7737;51.578;7.268;2023-06-10T02:25:14;12.75;;;11.55;;
15271;SDS011;7737;51.578;7.268;2023-06-10T02:27:42;11.77;;;10.77;;
15271;SDS011;7737;51.578;7.268;2023-06-10T02:30:09;13.07;;;11.77;;
15271;SDS011;7737;51.578;7.268;2023-06-10T02:32:36;12.50;;;11.35;;
15271;SDS011;7737;51.578;7.268;2023-06-10T02:35:03;12.88;;;11.82;;
15271;SDS011;7737;51.578;7.268;2023-06-10T02:37:30;12.20;;;11.10;;
15271;SDS011;7737;51.578;7.268;2023-06-10T02:39:57;11.85;;;10.65;;
15271;SDS011;7737;51.578;7.268;2023-06-10T02:42:23;12.13;;;11.13;;
15271;SDS011;7737;51.578;7.268;2023-06-10T02:44:51;12.65;;;11.55;;
15271;SDS011;7737;51.578;7.268;2023-06-10T02:47:18;12.35;;;11.38;;
15271;SDS011;7737;51.578;7.268;2023-06-10T02:49:44;12.55;;;11.45;;
15271;SDS011;7737;51.578;7.268;2023-06-10T02:52:11;13.57;;;12.18;;
15271;SDS011;7737;51.578;7.268;2023-06-10T02:54:37;13.02;;;11.93;;
15271;SDS011;7737;51.578;7.268;2023-06-10T02:57:05;13.43;;;12.23;;
15271;SDS011;7737;51.578;7.268;2023-06-10T02:59:32;12.77;;;11.68;;
15271;SDS011;7737;51.578;7.268;2023-06-10T03:02:00;12.35;;;11.27;;
15271;SDS011;7737;51.578;7.268;2023-06-10T03:04:27;13.70;;;12.40;;
15271;SDS011;7737;51.578;7.268;2023-06-10T03:06:54;13.45;;;12.25;;
15271;SDS011;7737;51.578;7.268;2023-06-10T03:09:20;13.18;;;11.70;;
15271;SDS011;7737;51.578;7.268;2023-06-10T03:11:47;13.90;;;12.70;;
15271;SDS011;7737;51.578;7.268;2023-06-10T03:14:14;13.18;;;11.98;;
15271;SDS011;7737;51.578;7.268;2023-06-10T03:16:40;13.18;;;11.88;;
15271;SDS011;7737;51.578;7.268;2023-06-10T03:19:09;13.50;;;12.18;;
15271;SDS011;7737;51.578;7.268;2023-06-10T03:21:35;13.18;;;12.00;;
15271;SDS011;7737;51.578;7.268;2023-06-10T03:24:02;13.10;;;11.70;;
15271;SDS011;7737;51.578;7.268;2023-06-10T03:26:29;13.85;;;12.60;;
15271;SDS011;7737;51.578;7.268;2023-06-10T03:28:55;13.50;;;12.20;;
15271;SDS011;7737;51.578;7.268;2023-06-10T03:31:22;13.25;;;12.05;;
15271;SDS011;7737;51.578;7.268;2023-06-10T03:33:49;13.05;;;11.85;;
15271;SDS011;7737;51.578;7.268;2023-06-10T03:36:17;13.77;;;12.48;;
15271;SDS011;7737;51.578;7.268;2023-06-10T03:38:44;13.30;;;12.10;;
15271;SDS011;7737;51.578;7.268;2023-06-10T03:41:10;12.35;;;11.15;;
15271;SDS011;7737;51.578;7.268;2023-06-10T03:43:37;13.32;;;12.13;;
15271;SDS011;7737;51.578;7.268;2023-06-10T03:46:04;13.45;;;12.10;;
15271;SDS011;7737;51.578;7.268;2023-06-10T03:48:30;12.77;;;11.55;;
15271;SDS011;7737;51.578;7.268;2023-06-10T03:50:56;13.00;;;11.30;;
15271;SDS011;7737;51.578;7.268;2023-06-10T03:53:24;12.65;;;11.55;;
15271;SDS011;7737;51.578;7.268;2023-06-10T03:55:51;12.02;;;10.70;;
15271;SDS011;7737;51.578;7.268;2023-06-10T03:58:18;12.43;;;11.23;;
15271;SDS011;7737;51.578;7.268;2023-06-10T04:00:44;12.00;;;10.90;;
15271;SDS011;7737;51.578;7.268;2023-06-10T04:03:12;11.82;;;10.82;;
15271;SDS011;7737;51.578;7.268;2023-06-10T04:05:39;11.45;;;10.38;;
15271;SDS011;7737;51.578;7.268;2023-06-10T04:08:07;11.27;;;10.10;;
15271;SDS011;7737;51.578;7.268;2023-06-10T04:10:35;10.85;;;9.85;;
15271;SDS011;7737;51.578;7.268;2023-06-10T04:13:01;11.43;;;10.32;;
15271;SDS011;7737;51.578;7.268;2023-06-10T04:15:29;10.90;;;9.90;;
15271;SDS011;7737;51.578;7.268;2023-06-10T04:17:57;10.75;;;9.82;;
15271;SDS011;7737;51.578;7.268;2023-06-10T04:20:24;10.82;;;9.73;;
15271;SDS011;7737;51.578;7.268;2023-06-10T04:22:51;11.15;;;9.65;;
15271;SDS011;7737;51.578;7.268;2023-06-10T04:25:17;10.85;;;9.85;;
15271;SDS011;7737;51.578;7.268;2023-06-10T04:27:46;10.95;;;9.85;;
15271;SDS011;7737;51.578;7.268;2023-06-10T04:30:13;10.82;;;9.73;;
15271;SDS011;7737;51.578;7.268;2023-06-10T04:32:40;10.65;;;9.38;;
15271;SDS011;7737;51.578;7.268;2023-06-10T04:35:07;12.52;;;11.23;;
15271;SDS011;7737;51.578;7.268;2023-06-10T04:37:37;10.60;;;9.70;;
15271;SDS011;7737;51.578;7.268;2023-06-10T04:40:04;10.70;;;9.65;;
15271;SDS011;7737;51.578;7.268;2023-06-10T04:42:31;11.57;;;10.20;;
15271;SDS011;7737;51.578;7.268;2023-06-10T04:44:59;11.32;;;10.13;;
15271;SDS011;7737;51.578;7.268;2023-06-10T04:47:26;11.57;;;10.27;;
15271;SDS011;7737;51.578;7.268;2023-06-10T04:49:53;11.32;;;10.18;;
15271;SDS011;7737;51.578;7.268;2023-06-10T04:52:19;10.65;;;9.55;;
15271;SDS011;7737;51.578;7.268;2023-06-10T04:54:46;10.27;;;9.18;;
15271;SDS011;7737;51.578;7.268;2023-06-10T04:57:13;11.10;;;9.52;;
15271;SDS011;7737;51.578;7.268;2023-06-10T04:59:39;9.88;;;9.02;;
15271;SDS011;7737;51.578;7.268;2023-06-10T05:02:07;13.32;;;10.25;;
15271;SDS011;7737;51.578;7.268;2023-06-10T05:04:34;10.05;;;9.13;;
15271;SDS011;7737;51.578;7.268;2023-06-10T05:07:00;12.38;;;9.65;;
15271;SDS011;7737;51.578;7.268;2023-06-10T05:09:27;11.63;;;9.18;;
15271;SDS011;7737;51.578;7.268;2023-06-10T05:11:53;10.32;;;9.32;;
15271;SDS011;7737;51.578;7.268;2023-06-10T05:14:20;9.70;;;8.70;;
15271;SDS011;7737;51.578;7.268;2023-06-10T05:16:47;10.73;;;9.63;;
15271;SDS011;7737;51.578;7.268;2023-06-10T05:19:15;11.25;;;9.55;;
15271;SDS011;7737;51.578;7.268;2023-06-10T05:21:42;10.18;;;9.18;;
15271;SDS011;7737;51.578;7.268;2023-06-10T05:24:10;10.18;;;9.18;;
15271;SDS011;7737;51.578;7.268;2023-06-10T05:26:36;9.93;;;8.90;;
15271;SDS011;7737;51.578;7.268;2023-06-10T05:29:03;11.63;;;8.43;;
15271;SDS011;7737;51.578;7.268;2023-06-10T05:31:30;9.18;;;8.25;;
15271;SDS011;7737;51.578;7.268;2023-06-10T05:33:56;11.95;;;8.88;;
15271;SDS011;7737;51.578;7.268;2023-06-10T05:36:24;10.63;;;8.65;;
15271;SDS011;7737;51.578;7.268;2023-06-10T05:38:51;8.68;;;7.85;;
15271;SDS011;7737;51.578;7.268;2023-06-10T05:41:18;9.85;;;8.27;;
15271;SDS011;7737;51.578;7.268;2023-06-10T05:43:45;9.35;;;8.45;;
15271;SDS011;7737;51.578;7.268;2023-06-10T05:46:11;9.50;;;8.50;;
15271;SDS011;7737;51.578;7.268;2023-06-10T05:48:38;8.90;;;8.10;;
15271;SDS011;7737;51.578;7.268;2023-06-10T05:51:05;9.77;;;8.45;;
15271;SDS011;7737;51.578;7.268;2023-06-10T05:53:32;9.40;;;8.27;;
15271;SDS011;7737;51.578;7.268;2023-06-10T05:55:59;8.82;;;7.68;;
15271;SDS011;7737;51.578;7.268;2023-06-10T05:58:25;8.00;;;7.18;;
15271;SDS011;7737;51.578;7.268;2023-06-10T06:00:52;9.40;;;7.50;;
15271;SDS011;7737;51.578;7.268;2023-06-10T06:03:19;9.13;;;7.78;;
15271;SDS011;7737;51.578;7.268;2023-06-10T06:05:45;8.55;;;7.28;;
15271;SDS011;7737;51.578;7.268;2023-06-10T06:08:12;7.95;;;7.15;;
15271;SDS011;7737;51.578;7.268;2023-06-10T06:10:43;8.43;;;7.53;;
15271;SDS011;7737;51.578;7.268;2023-06-10T06:13:10;7.95;;;7.00;;
15271;SDS011;7737;51.578;7.268;2023-06-10T06:15:37;8.18;;;7.43;;
15271;SDS011;7737;51.578;7.268;2023-06-10T06:18:03;8.80;;;7.32;;
15271;SDS011;7737;51.578;7.268;2023-06-10T06:20:30;9.13;;;6.68;;
15271;SDS011;7737;51.578;7.268;2023-06-10T06:22:56;8.98;;;6.70;;
15271;SDS011;7737;51.578;7.268;2023-06-10T06:25:23;9.50;;;6.68;;
15271;SDS011;7737;51.578;7.268;2023-06-10T06:27:51;8.30;;;6.65;;
15271;SDS011;7737;51.578;7.268;2023-06-10T06:30:17;7.15;;;6.07;;
15271;SDS011;7737;51.578;7.268;2023-06-10T06:32:44;10.30;;;6.15;;
15271;SDS011;7737;51.578;7.268;2023-06-10T06:35:11;7.22;;;6.38;;
15271;SDS011;7737;51.578;7.268;2023-06-10T06:37:37;7.28;;;5.78;;
15271;SDS011;7737;51.578;7.268;2023-06-10T06:40:05;6.47;;;5.82;;
15271;SDS011;7737;51.578;7.268;2023-06-10T06:42:32;8.75;;;6.15;;
15271;SDS011;7737;51.578;7.268;2023-06-10T06:45:00;7.18;;;5.95;;
15271;SDS011;7737;51.578;7.268;2023-06-10T06:47:26;7.63;;;5.32;;
15271;SDS011;7737;51.578;7.268;2023-06-10T06:49:53;6.43;;;5.70;;
15271;SDS011;7737;51.578;7.268;2023-06-10T06:52:19;8.95;;;5.35;;
15271;SDS011;7737;51.578;7.268;2023-06-10T06:54:47;7.00;;;5.85;;
15271;SDS011;7737;51.578;7.268;2023-06-10T06:57:13;7.22;;;5.50;;
15271;SDS011;7737;51.578;7.268;2023-06-10T06:59:40;5.75;;;5.13;;
15271;SDS011;7737;51.578;7.268;2023-06-10T07:02:08;6.47;;;5.65;;
15271;SDS011;7737;51.578;7.268;2023-06-10T07:04:34;5.72;;;5.07;;
15271;SDS011;7737;51.578;7.268;2023-06-10T07:07:01;7.00;;;5.47;;
15271;SDS011;7737;51.578;7.268;2023-06-10T07:09:28;6.05;;;5.03;;
15271;SDS011;7737;51.578;7.268;2023-06-10T07:11:54;5.70;;;4.75;;
15271;SDS011;7737;51.578;7.268;2023-06-10T07:14:21;7.13;;;5.22;;
15271;SDS011;7737;51.578;7.268;2023-06-10T07:16:47;7.10;;;5.03;;
15271;SDS011;7737;51.578;7.268;2023-06-10T07:19:16;6.53;;;4.60;;
15271;SDS011;7737;51.578;7.268;2023-06-10T07:21:42;6.20;;;4.38;;
15271;SDS011;7737;51.578;7.268;2023-06-10T07:24:09;5.90;;;5.00;;
15271;SDS011;7737;51.578;7.268;2023-06-10T07:26:35;6.43;;;5.05;;
15271;SDS011;7737;51.578;7.268;2023-06-10T07:29:02;5.43;;;4.88;;
15271;SDS011;7737;51.578;7.268;2023-06-10T07:31:28;5.82;;;4.60;;
15271;SDS011;7737;51.578;7.268;2023-06-10T07:33:55;5.25;;;4.60;;
15271;SDS011;7737;51.578;7.268;2023-06-10T07:36:23;6.55;;;4.43;;
15271;SDS011;7737;51.578;7.268;2023-06-10T07:38:52;6.95;;;4.47;;
15271;SDS011;7737;51.578;7.268;2023-06-10T07:41:18;4.93;;;4.43;;
15271;SDS011;7737;51.578;7.268;2023-06-10T07:43:45;6.18;;;4.53;;
15271;SDS011;7737;51.578;7.268;2023-06-10T07:46:12;6.20;;;4.43;;
15271;SDS011;7737;51.578;7.268;2023-06-10T07:48:38;6.22;;;4.13;;
15271;SDS011;7737;51.578;7.268;2023-06-10T07:51:05;5.47;;;4.80;;
15271;SDS011;7737;51.578;7.268;2023-06-10T07:53:32;5.55;;;4.95;;
15271;SDS011;7737;51.578;7.268;2023-06-10T07:55:59;6.20;;;5.05;;
15271;SDS011;7737;51.578;7.268;2023-06-10T07:58:26;6.10;;;5.07;;
15271;SDS011;7737;51.578;7.268;2023-06-10T08:00:52;7.95;;;5.03;;
15271;SDS011;7737;51.578;7.268;2023-06-10T08:03:20;6.43;;;5.03;;
15271;SDS011;7737;51.578;7.268;2023-06-10T08:05:47;7.75;;;5.10;;
15271;SDS011;7737;51.578;7.268;2023-06-10T08:08:13;6.70;;;4.80;;
15271;SDS011;7737;51.578;7.268;2023-06-10T08:10:42;8.63;;;5.18;;
15271;SDS011;7737;51.578;7.268;2023-06-10T08:13:08;5.90;;;4.93;;
15271;SDS011;7737;51.578;7.268;2023-06-10T08:15:35;5.30;;;4.38;;
15271;SDS011;7737;51.578;7.268;2023-06-10T08:18:01;6.85;;;4.72;;
15271;SDS011;7737;51.578;7.268;2023-06-10T08:20:28;7.43;;;4.75;;
15271;SDS011;7737;51.578;7.268;2023-06-10T08:22:55;7.65;;;5.07;;
15271;SDS011;7737;51.578;7.268;2023-06-10T08:25:21;6.03;;;4.57;;
15271;SDS011;7737;51.578;7.268;2023-06-10T08:27:49;5.47;;;4.68;;
15271;SDS011;7737;51.578;7.268;2023-06-10T08:30:17;6.25;;;4.40;;
15271;SDS011;7737;51.578;7.268;2023-06-10T08:32:43;5.15;;;4.20;;
15271;SDS011;7737;51.578;7.268;2023-06-10T08:35:10;6.78;;;4.47;;
15271;SDS011;7737;51.578;7.268;2023-06-10T08:37:37;7.20;;;4.55;;
15271;SDS011;7737;51.578;7.268;2023-06-10T08:40:03;6.60;;;4.53;;
15271;SDS011;7737;51.578;7.268;2023-06-10T08:42:33;5.05;;;4.20;;
15271;SDS011;7737;51.578;7.268;2023-06-10T08:45:05;8.10;;;4.78;;
15271;SDS011;7737;51.578;7.268;2023-06-10T08:47:38;4.88;;;4.38;;
15271;SDS011;7737;51.578;7.268;2023-06-10T08:50:07;7.32;;;4.75;;
15271;SDS011;7737;51.578;7.268;2023-06-10T08:52:35;7.53;;;4.90;;
15271;SDS011;7737;51.578;7.268;2023-06-10T08:55:03;6.90;;;4.70;;
15271;SDS011;7737;51.578;7.268;2023-06-10T08:57:34;6.15;;;4.78;;
15271;SDS011;7737;51.578;7.268;2023-06-10T09:00:02;5.13;;;4.45;;
15271;SDS011;7737;51.578;7.268;2023-06-10T09:02:31;7.78;;;4.28;;
15271;SDS011;7737;51.578;7.268;2023-06-10T09:05:00;7.30;;;4.30;;
15271;SDS011;7737;51.578;7.268;2023-06-10T09:07:28;6.90;;;4.30;;
15271;SDS011;7737;51.578;7.268;2023-06-10T09:09:57;7.43;;;4.15;;
15271;SDS011;7737;51.578;7.268;2023-06-10T09:12:25;5.43;;;4.32;;
15271;SDS011;7737;51.578;7.268;2023-06-10T09:14:51;5.35;;;3.78;;
15271;SDS011;7737;51.578;7.268;2023-06-10T09:17:18;5.97;;;4.35;;
15271;SDS011;7737;51.578;7.268;2023-06-10T09:19:45;4.90;;;4.38;;
15271;SDS011;7737;51.578;7.268;2023-06-10T09:22:13;6.03;;;4.35;;
15271;SDS011;7737;51.578;7.268;2023-06-10T09:24:40;6.38;;;4.75;;
15271;SDS011;7737;51.578;7.268;2023-06-10T09:27:07;5.35;;;4.28;;
15271;SDS011;7737;51.578;7.268;2023-06-10T09:29:44;4.78;;;4.10;;
15271;SDS011;7737;51.578;7.268;2023-06-10T09:32:12;5.18;;;4.20;;
15271;SDS011;7737;51.578;7.268;2023-06-10T09:34:38;7.15;;;5.10;;
15271;SDS011;7737;51.578;7.268;2023-06-10T09:37:07;4.95;;;4.38;;
15271;SDS011;7737;51.578;7.268;2023-06-10T09:39:37;5.75;;;4.03;;
15271;SDS011;7737;51.578;7.268;2023-06-10T09:42:04;6.50;;;4.30;;
15271;SDS011;7737;51.578;7.268;2023-06-10T09:44:41;5.30;;;4.38;;
15271;SDS011;7737;51.578;7.268;2023-06-10T09:47:08;5.88;;;4.25;;
15271;SDS011;7737;51.578;7.268;2023-06-10T09:49:37;6.20;;;4.45;;
15271;SDS011;7737;51.578;7.268;2023-06-10T09:52:04;8.68;;;4.53;;
15271;SDS011;7737;51.578;7.268;2023-06-10T09:54:33;5.07;;;4.40;;
15271;SDS011;7737;51.578;7.268;2023-06-10T09:57:00;4.80;;;4.10;;
15271;SDS011;7737;51.578;7.268;2023-06-10T09:59:34;5.32;;;4.40;;
15271;SDS011;7737;51.578;7.268;2023-06-10T10:02:05;7.22;;;4.43;;
15271;SDS011;7737;51.578;7.268;2023-06-10T10:04:32;4.40;;;3.90;;
15271;SDS011;7737;51.578;7.268;2023-06-10T10:07:02;4.95;;;4.30;;
15271;SDS011;7737;51.578;7.268;2023-06-10T10:09:29;4.95;;;4.50;;
15271;SDS011;7737;51.578;7.268;2023-06-10T10:11:57;5.55;;;3.97;;
15271;SDS011;7737;51.578;7.268;2023-06-10T10:14:25;5.55;;;4.40;;
15271;SDS011;7737;51.578;7.268;2023-06-10T10:16:58;6.18;;;4.30;;
15271;SDS011;7737;51.578;7.268;2023-06-10T10:19:28;6.70;;;4.22;;
15271;SDS011;7737;51.578;7.268;2023-06-10T10:21:59;8.20;;;4.47;;
15271;SDS011;7737;51.578;7.268;2023-06-10T10:24:31;5.68;;;4.43;;
15271;SDS011;7737;51.578;7.268;2023-06-10T10:27:04;4.60;;;4.20;;
15271;SDS011;7737;51.578;7.268;2023-06-10T10:29:47;6.40;;;3.92;;
15271;SDS011;7737;51.578;7.268;2023-06-10T10:32:18;4.57;;;3.95;;
15271;SDS011;7737;51.578;7.268;2023-06-10T10:34:48;5.10;;;4.13;;
15271;SDS011;7737;51.578;7.268;2023-06-10T10:37:19;5.07;;;4.55;;
15271;SDS011;7737;51.578;7.268;2023-06-10T10:39:46;7.20;;;4.63;;
15271;SDS011;7737;51.578;7.268;2023-06-10T10:42:15;5.85;;;4.15;;
15271;SDS011;7737;51.578;7.268;2023-06-10T10:44:43;5.72;;;4.57;;
15271;SDS011;7737;51.578;7.268;2023-06-10T10:47:10;6.00;;;4.30;;
15271;SDS011;7737;51.578;7.268;2023-06-10T10:49:38;4.88;;;4.35;;
15271;SDS011;7737;51.578;7.268;2023-06-10T10:52:11;7.65;;;4.70;;
15271;SDS011;7737;51.578;7.268;2023-06-10T10:54:39;6.60;;;4.63;;
15271;SDS011;7737;51.578;7.268;2023-06-10T10:57:10;7.00;;;4.40;;
15271;SDS011;7737;51.578;7.268;2023-06-10T10:59:46;5.95;;;4.22;;
15271;SDS011;7737;51.578;7.268;2023-06-10T11:02:32;8.13;;;4.80;;
15271;SDS011;7737;51.578;7.268;2023-06-10T11:05:03;5.45;;;4.78;;
15271;SDS011;7737;51.578;7.268;2023-06-10T11:07:31;5.22;;;4.70;;
15271;SDS011;7737;51.578;7.268;2023-06-10T11:09:58;5.05;;;4.43;;
15271;SDS011;7737;51.578;7.268;2023-06-10T11:12:33;5.80;;;4.57;;
15271;SDS011;7737;51.578;7.268;2023-06-10T11:15:08;6.10;;;4.35;;
15271;SDS011;7737;51.578;7.268;2023-06-10T11:17:35;7.50;;;4.30;;
15271;SDS011;7737;51.578;7.268;2023-06-10T11:20:01;6.03;;;4.40;;
15271;SDS011;7737;51.578;7.268;2023-06-10T11:22:28;5.07;;;4.57;;
15271;SDS011;7737;51.578;7.268;2023-06-10T11:24:55;5.32;;;4.63;;
15271;SDS011;7737;51.578;7.268;2023-06-10T11:27:24;6.13;;;4.65;;
15271;SDS011;7737;51.578;7.268;2023-06-10T11:30:18;6.65;;;4.80;;
15271;SDS011;7737;51.578;7.268;2023-06-10T11:32:48;7.82;;;4.72;;
15271;SDS011;7737;51.578;7.268;2023-06-10T11:35:18;5.95;;;4.60;;
15271;SDS011;7737;51.578;7.268;2023-06-10T11:37:46;5.55;;;5.05;;
15271;SDS011;7737;51.578;7.268;2023-06-10T11:40:13;7.05;;;5.13;;
15271;SDS011;7737;51.578;7.268;2023-06-10T11:42:40;5.72;;;4.55;;
15271;SDS011;7737;51.578;7.268;2023-06-10T11:45:07;5.82;;;4.97;;
15271;SDS011;7737;51.578;7.268;2023-06-10T11:47:35;5.03;;;4.57;;
15271;SDS011;7737;51.578;7.268;2023-06-10T11:50:02;5.40;;;4.47;;
15271;SDS011;7737;51.578;7.268;2023-06-10T11:52:30;5.97;;;4.65;;
15271;SDS011;7737;51.578;7.268;2023-06-10T11:54:59;5.32;;;4.82;;
15271;SDS011;7737;51.578;7.268;2023-06-10T11:57:25;5.18;;;4.68;;
15271;SDS011;7737;51.578;7.268;2023-06-10T11:59:52;6.82;;;4.65;;
15271;SDS011;7737;51.578;7.268;2023-06-10T12:02:19;5.20;;;4.70;;
15271;SDS011;7737;51.578;7.268;2023-06-10T12:04:48;6.90;;;5.00;;
15271;SDS011;7737;51.578;7.268;2023-06-10T12:07:18;6.82;;;5.07;;
15271;SDS011;7737;51.578;7.268;2023-06-10T12:09:52;5.43;;;4.40;;
15271;SDS011;7737;51.578;7.268;2023-06-10T12:12:25;6.25;;;4.97;;
15271;SDS011;7737;51.578;7.268;2023-06-10T12:14:53;5.75;;;5.15;;
15271;SDS011;7737;51.578;7.268;2023-06-10T12:17:22;4.75;;;4.35;;
15271;SDS011;7737;51.578;7.268;2023-06-10T12:19:50;5.10;;;4.55;;
15271;SDS011;7737;51.578;7.268;2023-06-10T12:22:17;5.25;;;4.55;;
15271;SDS011;7737;51.578;7.268;2023-06-10T12:24:45;8.27;;;4.68;;
15271;SDS011;7737;51.578;7.268;2023-06-10T12:27:24;5.10;;;4.38;;
15271;SDS011;7737;51.578;7.268;2023-06-10T12:29:53;5.07;;;4.55;;
15271;SDS011;7737;51.578;7.268;2023-06-10T12:32:20;4.97;;;4.57;;
15271;SDS011;7737;51.578;7.268;2023-06-10T12:34:51;6.03;;;4.88;;
15271;SDS011;7737;51.578;7.268;2023-06-10T12:37:29;5.28;;;4.65;;
15271;SDS011;7737;51.578;7.268;2023-06-10T12:39:59;5.55;;;5.05;;
15271;SDS011;7737;51.578;7.268;2023-06-10T12:42:27;5.10;;;4.60;;
15271;SDS011;7737;51.578;7.268;2023-06-10T12:44:55;6.05;;;4.50;;
15271;SDS011;7737;51.578;7.268;2023-06-10T12:47:28;5.90;;;4.82;;
15271;SDS011;7737;51.578;7.268;2023-06-10T12:49:59;6.20;;;5.32;;
15271;SDS011;7737;51.578;7.268;2023-06-10T12:52:26;5.15;;;4.75;;
15271;SDS011;7737;51.578;7.268;2023-06-10T12:54:53;7.05;;;5.82;;
15271;SDS011;7737;51.578;7.268;2023-06-10T12:57:20;6.68;;;5.03;;
15271;SDS011;7737;51.578;7.268;2023-06-10T12:59:47;6.13;;;5.03;;
15271;SDS011;7737;51.578;7.268;2023-06-10T13:02:17;5.95;;;5.35;;
15271;SDS011;7737;51.578;7.268;2023-06-10T13:04:45;5.32;;;4.82;;
15271;SDS011;7737;51.578;7.268;2023-06-10T13:07:14;5.43;;;4.93;;
15271;SDS011;7737;51.578;7.268;2023-06-10T13:09:41;5.70;;;5.10;;
15271;SDS011;7737;51.578;7.268;2023-06-10T13:12:08;5.40;;;5.00;;
15271;SDS011;7737;51.578;7.268;2023-06-10T13:14:35;6.30;;;5.28;;
15271;SDS011;7737;51.578;7.268;2023-06-10T13:17:02;6.20;;;4.90;;
15271;SDS011;7737;51.578;7.268;2023-06-10T13:19:30;5.97;;;5.10;;
15271;SDS011;7737;51.578;7.268;2023-06-10T13:21:58;5.68;;;5.00;;
15271;SDS011;7737;51.578;7.268;2023-06-10T13:24:26;5.63;;;4.60;;
15271;SDS011;7737;51.578;7.268;2023-06-10T13:26:53;5.20;;;4.75;;
15271;SDS011;7737;51.578;7.268;2023-06-10T13:29:22;5.35;;;4.85;;
15271;SDS011;7737;51.578;7.268;2023-06-10T13:31:49;5.15;;;4.60;;
15271;SDS011;7737;51.578;7.268;2023-06-10T13:34:16;6.30;;;4.80;;
15271;SDS011;7737;51.578;7.268;2023-06-10T13:36:43;5.50;;;5.00;;
15271;SDS011;7737;51.578;7.268;2023-06-10T13:39:09;6.68;;;4.75;;
15271;SDS011;7737;51.578;7.268;2023-06-10T13:41:38;5.00;;;4.60;;
15271;SDS011;7737;51.578;7.268;2023-06-10T13:44:06;6.68;;;4.90;;
15271;SDS011;7737;51.578;7.268;2023-06-10T13:46:32;5.80;;;5.30;;
15271;SDS011;7737;51.578;7.268;2023-06-10T13:48:59;6.30;;;5.43;;
15271;SDS011;7737;51.578;7.268;2023-06-10T13:51:25;5.97;;;5.07;;
15271;SDS011;7737;51.578;7.268;2023-06-10T13:53:52;5.15;;;4.65;;
15271;SDS011;7737;51.578;7.268;2023-06-10T13:56:19;5.75;;;5.20;;
15271;SDS011;7737;51.578;7.268;2023-06-10T13:58:46;5.80;;;4.80;;
15271;SDS011;7737;51.578;7.268;2023-06-10T14:01:13;5.38;;;4.90;;
15271;SDS011;7737;51.578;7.268;2023-06-10T14:03:40;5.90;;;5.18;;
15271;SDS011;7737;51.578;7.268;2023-06-10T14:06:06;5.65;;;4.78;;
15271;SDS011;7737;51.578;7.268;2023-06-10T14:08:33;5.40;;;4.90;;
15271;SDS011;7737;51.578;7.268;2023-06-10T14:11:00;5.78;;;5.13;;
15271;SDS011;7737;51.578;7.268;2023-06-10T14:13:26;5.28;;;4.80;;
15271;SDS011;7737;51.578;7.268;2023-06-10T14:15:54;5.47;;;4.88;;
15271;SDS011;7737;51.578;7.268;2023-06-10T14:18:27;4.97;;;4.50;;
15271;SDS011;7737;51.578;7.268;2023-06-10T14:20:54;5.22;;;4.70;;
15271;SDS011;7737;51.578;7.268;2023-06-10T14:23:20;4.97;;;4.50;;
15271;SDS011;7737;51.578;7.268;2023-06-10T14:25:48;5.15;;;4.63;;
15271;SDS011;7737;51.578;7.268;2023-06-10T14:28:15;5.13;;;4.60;;
15271;SDS011;7737;51.578;7.268;2023-06-10T14:30:41;5.63;;;4.57;;
15271;SDS011;7737;51.578;7.268;2023-06-10T14:33:09;4.90;;;4.50;;
15271;SDS011;7737;51.578;7.268;2023-06-10T14:35:36;5.10;;;4.38;;
15271;SDS011;7737;51.578;7.268;2023-06-10T14:38:02;5.45;;;4.95;;
15271;SDS011;7737;51.578;7.268;2023-06-10T14:40:29;4.72;;;4.25;;
15271;SDS011;7737;51.578;7.268;2023-06-10T14:42:56;4.72;;;4.32;;
15271;SDS011;7737;51.578;7.268;2023-06-10T14:45:25;5.90;;;4.63;;
15271;SDS011;7737;51.578;7.268;2023-06-10T14:47:51;5.10;;;4.60;;
15271;SDS011;7737;51.578;7.268;2023-06-10T14:50:19;5.63;;;4.35;;
15271;SDS011;7737;51.578;7.268;2023-06-10T14:52:46;5.18;;;4.50;;
15271;SDS011;7737;51.578;7.268;2023-06-10T14:55:12;5.10;;;4.70;;
15271;SDS011;7737;51.578;7.268;2023-06-10T14:57:41;5.95;;;4.60;;
15271;SDS011;7737;51.578;7.268;2023-06-10T15:00:08;6.90;;;4.35;;
15271;SDS011;7737;51.578;7.268;2023-06-10T15:02:35;4.90;;;4.45;;